createdAt,value
2022-12-04T00:00:27.865Z,106.43
2022-12-04T00:02:54.755Z,67.60
2022-12-04T00:05:21.627Z,69.50
2022-12-04T00:07:49.617Z,106.47
2022-12-04T00:10:16.461Z,51.13
2022-12-04T00:12:43.226Z,102.30
2022-12-04T00:15:26.635Z,56.57
2022-12-04T00:17:53.798Z,64.07
2022-12-04T00:20:21.688Z,64.93
2022-12-04T00:22:49.431Z,73.00
2022-12-04T00:25:16.673Z,70.07
2022-12-04T00:27:43.444Z,66.73
2022-12-04T00:30:10.770Z,71.23
2022-12-04T00:32:37.561Z,67.83
2022-12-04T00:35:04.601Z,58.30
2022-12-04T00:37:33.430Z,66.37
2022-12-04T00:40:00.565Z,75.30
2022-12-04T00:42:27.264Z,95.30
2022-12-04T00:44:54.065Z,70.53
2022-12-04T00:47:21.038Z,68.90
2022-12-04T00:49:47.780Z,72.27
2022-12-04T00:52:14.452Z,68.60
2022-12-04T00:54:41.178Z,60.97
2022-12-04T00:57:07.885Z,76.70
2022-12-04T00:59:35.527Z,52.90
2022-12-04T01:02:02.189Z,75.83
2022-12-04T01:04:28.925Z,71.80
2022-12-04T01:06:58.056Z,84.03
2022-12-04T01:09:28.408Z,65.93
2022-12-04T01:11:55.416Z,66.30
2022-12-04T01:14:22.170Z,57.33
2022-12-04T01:16:49.915Z,79.83
2022-12-04T01:19:17.050Z,80.80
2022-12-04T01:21:43.765Z,77.03
2022-12-04T01:24:10.741Z,52.27
2022-12-04T01:26:37.733Z,70.43
2022-12-04T01:29:05.047Z,57.47
2022-12-04T01:31:32.253Z,73.43
2022-12-04T01:33:58.992Z,52.47
2022-12-04T01:36:28.279Z,70.50
2022-12-04T01:38:55.922Z,77.93
2022-12-04T01:41:28.661Z,75.40
2022-12-04T01:44:17.026Z,66.63
2022-12-04T01:46:46.748Z,84.40
2022-12-04T01:49:23.829Z,56.30
2022-12-04T01:52:03.525Z,46.47
2022-12-04T01:54:37.403Z,56.53
2022-12-04T01:57:30.049Z,58.70
2022-12-04T02:00:05.721Z,58.47
2022-12-04T02:02:35.731Z,56.37
2022-12-04T02:05:05.617Z,65.73
2022-12-04T02:07:33.233Z,59.33
2022-12-04T02:10:03.970Z,51.57
2022-12-04T02:12:39.679Z,70.70
2022-12-04T02:15:12.420Z,63.27
2022-12-04T02:17:55.719Z,50.27
2022-12-04T02:20:41.297Z,49.57
2022-12-04T02:23:26.754Z,53.97
2022-12-04T02:26:21.659Z,73.93
2022-12-04T02:28:51.836Z,65.73
2022-12-04T02:31:27.449Z,91.17
2022-12-04T02:34:18.353Z,73.93
2022-12-04T02:36:52.632Z,69.97
2022-12-04T02:39:28.269Z,62.43
2022-12-04T02:42:01.579Z,127.13
2022-12-04T02:44:51.696Z,78.03
2022-12-04T02:47:22.350Z,115.77
2022-12-04T02:50:15.035Z,97.40
2022-12-04T02:52:47.584Z,91.37
2022-12-04T02:55:33.596Z,86.17
2022-12-04T02:58:07.049Z,71.70
2022-12-04T03:00:36.094Z,76.87
2022-12-04T03:03:11.148Z,124.13
2022-12-04T03:05:58.137Z,70.77
2022-12-04T03:08:36.382Z,72.57
2022-12-04T03:11:03.566Z,72.50
2022-12-04T03:13:46.017Z,60.37
2022-12-04T03:16:36.493Z,68.50
2022-12-04T03:19:10.242Z,71.60
2022-12-04T03:21:41.339Z,84.47
2022-12-04T03:24:27.170Z,85.20
2022-12-04T03:27:10.317Z,86.03
2022-12-04T03:29:55.351Z,68.00
2022-12-04T03:32:26.694Z,81.07
2022-12-04T03:34:59.697Z,80.77
2022-12-04T03:37:42.865Z,70.37
2022-12-04T03:40:12.569Z,82.17
2022-12-04T03:43:06.456Z,71.50
2022-12-04T03:45:46.191Z,69.90
2022-12-04T03:48:26.598Z,68.17
2022-12-04T03:51:04.894Z,59.13
2022-12-04T03:53:40.968Z,72.10
2022-12-04T03:56:19.184Z,71.43
2022-12-04T03:59:04.925Z,67.20
2022-12-04T04:01:38.368Z,53.93
2022-12-04T04:04:10.757Z,90.90
2022-12-04T04:06:41.054Z,63.07
2022-12-04T04:09:18.913Z,92.83
2022-12-04T04:12:09.545Z,66.77
2022-12-04T04:15:00.241Z,95.10
2022-12-04T04:17:50.706Z,60.23
2022-12-04T04:20:48.987Z,49.67
2022-12-04T04:23:37.012Z,84.90
2022-12-04T04:26:04.474Z,81.67
2022-12-04T04:28:34.720Z,49.63
2022-12-04T04:31:15.900Z,65.53
2022-12-04T04:34:13.547Z,67.53
2022-12-04T04:36:51.643Z,60.43
2022-12-04T04:39:41.371Z,42.80
2022-12-04T04:42:33.385Z,64.53
2022-12-04T04:45:09.040Z,64.10
2022-12-04T04:47:38.513Z,61.33
2022-12-04T04:50:09.301Z,51.40
2022-12-04T04:52:39.771Z,65.53
2022-12-04T04:55:08.267Z,44.07
2022-12-04T04:57:37.253Z,54.97
2022-12-04T05:00:11.239Z,78.07
2022-12-04T05:02:38.744Z,68.00
2022-12-04T05:05:07.161Z,54.00
2022-12-04T05:07:33.911Z,44.83
2022-12-04T05:10:00.662Z,60.97
2022-12-04T05:12:27.801Z,60.93
2022-12-04T05:14:54.471Z,64.87
2022-12-04T05:17:22.066Z,47.93
2022-12-04T05:19:57.243Z,60.93
2022-12-04T05:22:31.730Z,55.87
2022-12-04T05:24:59.741Z,77.07
2022-12-04T05:27:28.910Z,47.00
2022-12-04T05:29:58.077Z,46.63
2022-12-04T05:32:26.808Z,43.20
2022-12-04T05:34:55.618Z,54.30
2022-12-04T05:37:23.657Z,50.57
2022-12-04T05:39:50.358Z,67.47
2022-12-04T05:42:17.186Z,53.90
2022-12-04T05:44:44.240Z,44.40
2022-12-04T05:47:11.812Z,80.73
2022-12-04T05:49:39.175Z,56.23
2022-12-04T05:52:06.189Z,59.33
2022-12-04T05:54:32.908Z,47.93
2022-12-04T05:56:59.711Z,48.63
2022-12-04T05:59:26.909Z,64.90
2022-12-04T06:01:54.369Z,48.93
2022-12-04T06:04:21.143Z,77.13
2022-12-04T06:06:47.905Z,40.60
2022-12-04T06:09:14.783Z,54.93
2022-12-04T06:11:42.864Z,53.37
2022-12-04T06:14:13.126Z,54.30
2022-12-04T06:16:45.656Z,50.87
2022-12-04T06:19:18.904Z,49.93
2022-12-04T06:21:48.230Z,50.13
2022-12-04T06:24:18.048Z,49.60
2022-12-04T06:27:11.254Z,45.97
2022-12-04T06:29:32.929Z,37.27
2022-12-04T06:31:59.704Z,50.57
2022-12-04T06:34:26.993Z,46.37
2022-12-04T06:36:54.272Z,53.90
2022-12-04T06:39:21.297Z,55.77
2022-12-04T06:41:48.184Z,48.17
2022-12-04T06:44:16.078Z,56.93
2022-12-04T06:46:46.702Z,41.63
2022-12-04T06:49:14.156Z,54.37
2022-12-04T06:51:41.083Z,52.00
2022-12-04T06:54:08.660Z,47.30
2022-12-04T06:56:35.657Z,54.50
2022-12-04T06:59:04.305Z,62.70
2022-12-04T07:01:33.502Z,45.03
2022-12-04T07:04:03.787Z,44.30
2022-12-04T07:06:36.200Z,45.30
2022-12-04T07:09:10.633Z,46.27
2022-12-04T07:11:39.523Z,47.43
2022-12-04T07:14:06.284Z,46.43
2022-12-04T07:16:38.634Z,39.37
2022-12-04T07:19:08.530Z,41.90
2022-12-04T07:21:35.311Z,44.73
2022-12-04T07:24:02.260Z,39.87
2022-12-04T07:26:30.567Z,44.33
2022-12-04T07:28:58.857Z,92.77
2022-12-04T07:31:27.734Z,55.87
2022-12-04T07:33:55.646Z,34.63
2022-12-04T07:36:25.070Z,46.57
2022-12-04T07:38:52.279Z,40.33
2022-12-04T07:41:19.850Z,56.00
2022-12-04T07:43:47.332Z,49.33
2022-12-04T07:46:17.350Z,33.63
2022-12-04T07:48:44.451Z,50.87
2022-12-04T07:51:12.849Z,32.80
2022-12-04T07:53:40.487Z,55.80
2022-12-04T07:56:08.931Z,40.70
2022-12-04T07:58:35.773Z,45.13
2022-12-04T08:01:22.998Z,42.90
2022-12-04T08:03:53.706Z,43.13
2022-12-04T08:06:23.951Z,48.33
2022-12-04T08:08:51.928Z,46.47
2022-12-04T08:11:22.434Z,43.27
2022-12-04T08:13:55.206Z,48.07
2022-12-04T08:16:21.987Z,40.17
2022-12-04T08:18:48.938Z,51.37
2022-12-04T08:21:21.524Z,54.80
2022-12-04T08:23:50.140Z,58.47
2022-12-04T08:26:17.345Z,46.63
2022-12-04T08:28:44.541Z,43.47
2022-12-04T08:31:14.692Z,47.77
2022-12-04T08:33:43.216Z,47.90
2022-12-04T08:36:13.587Z,46.63
2022-12-04T08:38:40.702Z,35.30
2022-12-04T08:41:11.432Z,46.17
2022-12-04T08:43:39.158Z,36.53
2022-12-04T08:46:09.226Z,35.67
2022-12-04T08:48:36.425Z,40.13
2022-12-04T08:51:04.489Z,42.73
2022-12-04T08:53:32.444Z,40.80
2022-12-04T08:56:01.451Z,41.47
2022-12-04T08:58:28.783Z,40.07
2022-12-04T09:00:55.857Z,38.07
2022-12-04T09:03:29.191Z,38.63
2022-12-04T09:06:01.855Z,37.77
2022-12-04T09:08:28.916Z,38.10
2022-12-04T09:11:02.124Z,39.13
2022-12-04T09:13:28.891Z,49.30
2022-12-04T09:15:56.033Z,39.40
2022-12-04T09:18:22.816Z,34.90
2022-12-04T09:20:57.765Z,37.70
2022-12-04T09:23:25.828Z,39.80
2022-12-04T09:25:52.684Z,38.27
2022-12-04T09:28:20.536Z,39.60
2022-12-04T09:30:57.473Z,39.63
2022-12-04T09:33:24.801Z,33.83
2022-12-04T09:35:51.668Z,33.17
2022-12-04T09:38:18.437Z,33.43
2022-12-04T09:41:16.994Z,42.07
2022-12-04T09:44:01.033Z,34.13
2022-12-04T09:46:51.384Z,37.90
2022-12-04T09:49:21.426Z,39.93
2022-12-04T09:51:50.054Z,33.60
2022-12-04T09:54:21.075Z,46.27
2022-12-04T09:56:55.001Z,37.73
2022-12-04T09:59:26.042Z,37.33
2022-12-04T10:02:22.291Z,35.37
2022-12-04T10:04:49.773Z,37.93
2022-12-04T10:07:24.852Z,39.87
2022-12-04T10:09:58.729Z,40.47
2022-12-04T10:12:26.397Z,37.10
2022-12-04T10:15:11.646Z,35.37
2022-12-04T10:17:50.919Z,33.70
2022-12-04T10:20:35.297Z,33.67
2022-12-04T10:23:21.933Z,37.90
2022-12-04T10:25:51.990Z,33.37
2022-12-04T10:28:27.942Z,41.30
2022-12-04T10:31:00.041Z,40.37
2022-12-04T10:33:51.037Z,44.20
2022-12-04T10:36:20.961Z,29.60
2022-12-04T10:38:52.612Z,33.30
2022-12-04T10:41:28.299Z,30.83
2022-12-04T10:43:55.464Z,30.73
2022-12-04T10:46:25.927Z,28.67
2022-12-04T10:48:58.032Z,28.83
2022-12-04T10:51:25.467Z,25.93
2022-12-04T10:53:52.241Z,28.87
2022-12-04T10:56:25.505Z,33.33
2022-12-04T10:59:01.024Z,28.60
2022-12-04T11:01:33.107Z,26.83
2022-12-04T11:04:07.877Z,28.47
2022-12-04T11:06:35.431Z,29.90
2022-12-04T11:09:03.872Z,30.23
2022-12-04T11:11:33.134Z,30.10
2022-12-04T11:14:14.820Z,31.23
2022-12-04T11:16:46.396Z,32.80
2022-12-04T11:19:22.198Z,31.57
2022-12-04T11:21:50.364Z,28.77
2022-12-04T11:24:37.961Z,32.03
2022-12-04T11:27:06.364Z,27.03
2022-12-04T11:29:47.759Z,26.60
2022-12-04T11:32:24.369Z,27.73
2022-12-04T11:34:55.982Z,27.60
2022-12-04T11:37:30.478Z,33.10
2022-12-04T11:39:57.853Z,36.07
2022-12-04T11:42:30.107Z,32.90
2022-12-04T11:45:01.517Z,27.13
2022-12-04T11:47:31.261Z,20.27
2022-12-04T11:50:11.881Z,25.47
2022-12-04T11:52:52.209Z,24.57
2022-12-04T11:55:33.433Z,20.40
2022-12-04T11:58:02.968Z,28.63
2022-12-04T12:00:32.974Z,23.00
2022-12-04T12:03:18.831Z,25.77
2022-12-04T12:05:54.661Z,26.53
2022-12-04T12:09:02.263Z,25.07
2022-12-04T12:11:42.533Z,23.23
2022-12-04T12:14:48.797Z,22.63
2022-12-04T12:17:27.404Z,22.77
2022-12-04T12:20:09.337Z,22.53
2022-12-04T12:23:11.296Z,19.07
2022-12-04T12:26:15.445Z,19.33
2022-12-04T12:29:05.154Z,20.47
2022-12-04T12:32:15.302Z,20.60
2022-12-04T12:34:46.200Z,17.70
2022-12-04T12:37:27.996Z,19.67
2022-12-04T12:40:15.085Z,19.07
2022-12-04T12:42:58.775Z,19.40
2022-12-04T12:45:52.798Z,27.57
2022-12-04T12:48:43.164Z,32.53
2022-12-04T12:51:30.049Z,26.00
2022-12-04T12:54:28.489Z,21.33
2022-12-04T12:57:04.552Z,21.37
2022-12-04T12:59:32.552Z,21.17
2022-12-04T13:02:14.656Z,21.20
2022-12-04T13:04:50.370Z,19.70
2022-12-04T13:07:17.175Z,22.20
2022-12-04T13:09:53.149Z,21.70
2022-12-04T13:12:22.798Z,23.97
2022-12-04T13:14:49.510Z,22.63
2022-12-04T13:17:21.055Z,20.33
2022-12-04T13:19:53.960Z,20.80
2022-12-04T13:22:29.971Z,27.07
2022-12-04T13:25:34.275Z,29.77
2022-12-04T13:28:04.141Z,22.20
2022-12-04T13:30:41.975Z,21.53
2022-12-04T13:33:29.131Z,22.37
2022-12-04T13:36:17.521Z,21.17
2022-12-04T13:39:02.494Z,21.57
2022-12-04T13:41:33.352Z,26.13
2022-12-04T13:44:05.655Z,23.27
2022-12-04T13:46:40.669Z,22.97
2022-12-04T13:49:32.434Z,23.87
2022-12-04T13:52:20.829Z,33.70
2022-12-04T13:55:00.489Z,23.07
2022-12-04T13:57:28.423Z,21.07
2022-12-04T14:00:23.673Z,27.90
2022-12-04T14:02:57.356Z,25.90
2022-12-04T14:05:40.333Z,24.70
2022-12-04T14:08:18.569Z,22.00
2022-12-04T14:10:57.398Z,21.63
2022-12-04T14:13:28.613Z,23.53
2022-12-04T14:16:08.330Z,39.60
2022-12-04T14:18:35.179Z,21.80
2022-12-04T14:21:05.068Z,22.13
2022-12-04T14:23:37.957Z,26.93
2022-12-04T14:26:05.488Z,20.63
2022-12-04T14:28:35.994Z,30.93
2022-12-04T14:31:24.048Z,24.00
2022-12-04T14:33:53.181Z,28.33
2022-12-04T14:36:34.252Z,26.90
2022-12-04T14:39:31.745Z,27.83
2022-12-04T14:42:23.568Z,29.53
2022-12-04T14:44:59.337Z,21.13
2022-12-04T14:47:44.388Z,22.10
2022-12-04T14:50:16.941Z,26.60
2022-12-04T14:52:54.541Z,27.17
2022-12-04T14:55:32.507Z,29.30
2022-12-04T14:58:21.488Z,24.10
2022-12-04T15:00:53.790Z,33.23
2022-12-04T15:03:21.592Z,28.53
2022-12-04T15:05:50.782Z,27.10
2022-12-04T15:08:20.298Z,20.83
2022-12-04T15:11:09.719Z,24.60
2022-12-04T15:13:38.862Z,22.33
2022-12-04T15:16:22.576Z,25.07
2022-12-04T15:18:59.453Z,22.13
2022-12-04T15:21:41.088Z,25.60
2022-12-04T15:24:19.579Z,23.57
2022-12-04T15:26:48.642Z,23.80
2022-12-04T15:29:25.588Z,21.57
2022-12-04T15:31:56.932Z,23.83
2022-12-04T15:34:39.992Z,30.70
2022-12-04T15:37:14.295Z,24.50
2022-12-04T15:39:41.273Z,26.47
2022-12-04T15:42:29.560Z,26.63
2022-12-04T15:45:02.737Z,22.20
2022-12-04T15:47:32.930Z,26.90
2022-12-04T15:50:14.497Z,23.43
2022-12-04T15:52:59.579Z,22.40
2022-12-04T15:55:29.544Z,20.80
2022-12-04T15:58:00.053Z,25.57
2022-12-04T16:00:34.320Z,24.37
2022-12-04T16:03:01.427Z,25.50
2022-12-04T16:05:37.569Z,28.53
2022-12-04T16:08:26.069Z,29.63
2022-12-04T16:11:08.670Z,26.80
2022-12-04T16:13:38.692Z,28.70
2022-12-04T16:16:11.576Z,27.10
2022-12-04T16:18:39.753Z,33.40
2022-12-04T16:21:14.536Z,32.00
2022-12-04T16:23:41.267Z,34.00
2022-12-04T16:26:16.224Z,31.97
2022-12-04T16:28:43.694Z,28.43
2022-12-04T16:31:14.852Z,36.20
2022-12-04T16:33:41.630Z,32.70
2022-12-04T16:36:11.324Z,35.83
2022-12-04T16:38:38.019Z,35.80
2022-12-04T16:41:05.859Z,38.63
2022-12-04T16:43:32.923Z,36.60
2022-12-04T16:46:01.402Z,45.93
2022-12-04T16:48:29.772Z,42.00
2022-12-04T16:50:56.583Z,37.60
2022-12-04T16:53:23.486Z,37.27
2022-12-04T16:55:51.759Z,40.80
2022-12-04T16:58:20.180Z,39.23
2022-12-04T17:00:54.018Z,42.10
2022-12-04T17:03:26.467Z,39.27
2022-12-04T17:05:54.098Z,39.20
2022-12-04T17:08:21.080Z,38.10
2022-12-04T17:10:48.541Z,40.27
2022-12-04T17:13:18.509Z,38.83
2022-12-04T17:15:45.880Z,43.53
2022-12-04T17:18:17.703Z,42.17
2022-12-04T17:20:47.400Z,38.30
2022-12-04T17:23:14.439Z,36.73
2022-12-04T17:25:41.156Z,40.17
2022-12-04T17:28:08.395Z,44.10
2022-12-04T17:30:36.369Z,41.57
2022-12-04T17:33:04.971Z,53.20
2022-12-04T17:35:31.775Z,52.70
2022-12-04T17:38:05.578Z,42.73
2022-12-04T17:40:32.639Z,42.63
2022-12-04T17:43:00.602Z,35.17
2022-12-04T17:45:29.588Z,37.03
2022-12-04T17:47:56.449Z,38.50
2022-12-04T17:50:23.385Z,38.27
2022-12-04T17:52:50.185Z,36.73
2022-12-04T17:55:18.546Z,34.20
2022-12-04T17:57:45.947Z,34.43
2022-12-04T18:00:12.947Z,32.13
2022-12-04T18:02:41.630Z,38.17
2022-12-04T18:05:09.568Z,35.10
2022-12-04T18:07:36.376Z,36.73
2022-12-04T18:10:04.032Z,35.73
2022-12-04T18:12:31.289Z,29.90
2022-12-04T18:14:57.967Z,33.27
2022-12-04T18:17:24.941Z,33.23
2022-12-04T18:19:51.640Z,34.03
2022-12-04T18:22:18.597Z,30.20
2022-12-04T18:24:46.205Z,28.67
2022-12-04T18:27:12.909Z,33.90
2022-12-04T18:29:40.089Z,27.73
2022-12-04T18:32:07.043Z,29.93
2022-12-04T18:34:34.142Z,28.87
2022-12-04T18:37:01.478Z,27.87
2022-12-04T18:39:28.216Z,27.47
2022-12-04T18:41:56.965Z,24.30
2022-12-04T18:44:24.231Z,24.40
2022-12-04T18:46:50.901Z,26.03
2022-12-04T18:49:17.840Z,25.17
2022-12-04T18:51:49.710Z,30.83
2022-12-04T18:54:23.075Z,24.03
2022-12-04T18:56:51.375Z,22.97
2022-12-04T18:59:25.265Z,21.23
2022-12-04T19:01:53.904Z,21.30
2022-12-04T19:04:23.358Z,25.03
2022-12-04T19:06:54.020Z,23.30
2022-12-04T19:09:40.982Z,23.80
2022-12-04T19:12:12.021Z,25.67
2022-12-04T19:14:40.043Z,20.77
2022-12-04T19:17:07.196Z,29.40
2022-12-04T19:19:34.547Z,28.77
2022-12-04T19:22:02.467Z,32.37
2022-12-04T19:24:29.193Z,24.73
2022-12-04T19:26:56.038Z,24.03
2022-12-04T19:29:22.821Z,23.00
2022-12-04T19:31:52.457Z,24.90
2022-12-04T19:34:22.829Z,22.47
2022-12-04T19:36:51.213Z,26.17
2022-12-04T19:39:17.961Z,23.03
2022-12-04T19:41:47.303Z,21.33
2022-12-04T19:44:46.928Z,22.20
2022-12-04T19:47:02.265Z,25.07
2022-12-04T19:49:29.341Z,22.27
2022-12-04T19:51:56.057Z,21.57
2022-12-04T19:54:24.227Z,22.83
2022-12-04T19:56:52.533Z,22.90
2022-12-04T19:59:20.372Z,22.00
2022-12-04T20:01:48.234Z,22.97
2022-12-04T20:04:16.140Z,20.83
2022-12-04T20:06:45.837Z,23.27
2022-12-04T20:09:16.349Z,25.77
2022-12-04T20:11:43.202Z,23.70
2022-12-04T20:14:10.561Z,22.93
2022-12-04T20:16:38.038Z,23.50
2022-12-04T20:19:07.061Z,30.13
2022-12-04T20:21:34.105Z,25.03
2022-12-04T20:24:05.385Z,22.60
2022-12-04T20:26:35.674Z,21.60
2022-12-04T20:29:03.419Z,21.63
2022-12-04T20:31:35.847Z,22.77
2022-12-04T20:34:05.503Z,20.73
2022-12-04T20:36:37.261Z,25.40
2022-12-04T20:39:05.431Z,26.87
2022-12-04T20:41:34.692Z,27.17
2022-12-04T20:44:04.825Z,26.67
2022-12-04T20:46:35.325Z,25.70
2022-12-04T20:49:06.710Z,22.57
2022-12-04T20:51:39.010Z,24.30
2022-12-04T20:54:07.282Z,23.47
2022-12-04T20:56:37.065Z,21.90
2022-12-04T20:59:07.667Z,23.13
2022-12-04T21:01:35.974Z,24.00
2022-12-04T21:04:04.158Z,24.80
2022-12-04T21:06:37.029Z,23.83
2022-12-04T21:09:08.042Z,25.67
2022-12-04T21:11:37.065Z,24.90
2022-12-04T21:14:26.991Z,27.90
2022-12-04T21:16:53.728Z,25.63
2022-12-04T21:19:22.197Z,25.93
2022-12-04T21:21:50.092Z,23.47
2022-12-04T21:24:19.187Z,22.47
2022-12-04T21:26:47.722Z,27.00
2022-12-04T21:29:15.855Z,26.80
2022-12-04T21:31:44.551Z,24.23
2022-12-04T21:34:14.133Z,23.53
2022-12-04T21:36:41.307Z,21.30
2022-12-04T21:39:08.123Z,23.87
2022-12-04T21:41:53.604Z,23.73
2022-12-04T21:44:21.685Z,27.50
2022-12-04T21:46:50.119Z,23.07
2022-12-04T21:49:19.170Z,26.43
2022-12-04T21:52:02.334Z,22.23
2022-12-04T21:54:29.771Z,24.50
2022-12-04T21:56:57.613Z,22.77
2022-12-04T21:59:25.821Z,22.37
2022-12-04T22:01:53.034Z,21.37
2022-12-04T22:04:20.201Z,19.70
2022-12-04T22:06:48.173Z,24.23
2022-12-04T22:09:14.846Z,28.07
2022-12-04T22:11:42.403Z,36.47
2022-12-04T22:14:10.438Z,23.70
2022-12-04T22:16:41.993Z,22.33
2022-12-04T22:19:11.503Z,23.50
2022-12-04T22:21:38.886Z,18.10
2022-12-04T22:24:06.607Z,25.63
2022-12-04T22:26:33.831Z,22.27
2022-12-04T22:29:00.951Z,22.93
2022-12-04T22:31:29.528Z,21.80
2022-12-04T22:33:58.829Z,22.97
2022-12-04T22:36:28.971Z,26.70
2022-12-04T22:39:11.450Z,20.87
2022-12-04T22:41:38.634Z,20.20
2022-12-04T22:44:06.340Z,20.67
2022-12-04T22:46:34.376Z,23.73
2022-12-04T22:49:01.150Z,26.63
2022-12-04T22:51:28.349Z,19.33
2022-12-04T22:53:57.357Z,21.97
2022-12-04T22:56:25.609Z,22.20
2022-12-04T22:58:53.480Z,20.37
2022-12-04T23:01:29.071Z,21.53
2022-12-04T23:03:56.754Z,22.50
2022-12-04T23:06:26.988Z,24.00
2022-12-04T23:08:59.036Z,24.37
2022-12-04T23:11:26.988Z,30.57
2022-12-04T23:14:00.294Z,26.87
2022-12-04T23:16:29.415Z,45.00
2022-12-04T23:18:57.058Z,29.70
2022-12-04T23:21:24.577Z,23.53
2022-12-04T23:23:53.490Z,22.47
2022-12-04T23:26:23.721Z,25.87
2022-12-04T23:28:50.843Z,35.27
2022-12-04T23:31:19.118Z,30.13
2022-12-04T23:33:46.091Z,30.23
2022-12-04T23:36:13.763Z,21.77
2022-12-04T23:38:42.164Z,31.03
2022-12-04T23:41:20.408Z,24.27
2022-12-04T23:43:49.222Z,19.33
2022-12-04T23:46:19.774Z,19.50
2022-12-04T23:48:46.988Z,22.63
2022-12-04T23:51:16.424Z,25.60
2022-12-04T23:53:43.142Z,26.20
2022-12-04T23:56:14.735Z,58.47
2022-12-04T23:58:43.315Z,25.50
